createdAt,value
2018-06-14T00:00:45.641Z,2.80
2018-06-14T00:03:14.000Z,2.90
2018-06-14T00:05:42.045Z,2.90
2018-06-14T00:08:10.417Z,3.10
2018-06-14T00:10:38.785Z,3.17
2018-06-14T00:13:07.163Z,3.23
2018-06-14T00:15:35.492Z,3.13
2018-06-14T00:18:03.566Z,3.10
2018-06-14T00:20:31.627Z,3.00
2018-06-14T00:23:00.005Z,3.37
2018-06-14T00:25:28.328Z,3.10
2018-06-14T00:27:56.643Z,3.13
2018-06-14T00:30:24.999Z,2.97
2018-06-14T00:32:53.398Z,3.20
2018-06-14T00:35:21.764Z,3.10
2018-06-14T00:37:50.084Z,3.10
2018-06-14T00:40:18.217Z,2.97
2018-06-14T00:42:46.555Z,3.20
2018-06-14T00:45:14.942Z,3.00
2018-06-14T00:47:43.258Z,2.80
2018-06-14T00:50:11.614Z,3.00
2018-06-14T00:52:39.928Z,2.90
2018-06-14T00:55:08.289Z,3.03
2018-06-14T00:57:36.644Z,3.37
2018-06-14T01:00:05.311Z,3.10
2018-06-14T01:02:33.624Z,2.57
2018-06-14T01:05:02.179Z,2.70
2018-06-14T01:07:30.517Z,3.00
2018-06-14T01:09:58.900Z,2.97
2018-06-14T01:12:27.220Z,2.77
2018-06-14T01:14:55.567Z,2.63
2018-06-14T01:17:23.902Z,3.23
2018-06-14T01:19:52.251Z,2.97
2018-06-14T01:22:20.612Z,3.43
2018-06-14T01:24:48.726Z,3.23
2018-06-14T01:27:17.068Z,2.97
2018-06-14T01:29:45.429Z,3.07
2018-06-14T01:32:13.787Z,3.20
2018-06-14T01:34:42.111Z,3.30
2018-06-14T01:37:10.483Z,3.20
2018-06-14T01:39:38.828Z,3.40
2018-06-14T01:42:07.193Z,3.00
2018-06-14T01:44:35.540Z,3.47
2018-06-14T01:47:03.895Z,3.30
2018-06-14T01:49:31.959Z,3.47
2018-06-14T01:52:00.335Z,3.57
2018-06-14T01:54:28.765Z,3.40
2018-06-14T01:56:57.129Z,3.27
2018-06-14T01:59:25.494Z,3.47
2018-06-14T02:01:53.588Z,3.47
2018-06-14T02:04:21.948Z,3.33
2018-06-14T02:06:50.041Z,3.40
2018-06-14T02:09:18.493Z,3.53
2018-06-14T02:11:46.595Z,3.53
2018-06-14T02:14:14.951Z,3.70
2018-06-14T02:16:43.085Z,3.60
2018-06-14T02:19:11.443Z,3.37
2018-06-14T02:21:39.823Z,3.47
2018-06-14T02:24:08.165Z,2.93
2018-06-14T02:26:36.283Z,3.40
2018-06-14T02:29:04.763Z,3.23
2018-06-14T02:31:33.108Z,3.80
2018-06-14T02:34:01.490Z,3.13
2018-06-14T02:36:29.850Z,3.43
2018-06-14T02:38:58.240Z,3.07
2018-06-14T02:41:26.331Z,3.30
2018-06-14T02:43:54.733Z,3.33
2018-06-14T02:46:23.075Z,3.40
2018-06-14T02:48:51.487Z,3.73
2018-06-14T02:51:19.887Z,3.93
2018-06-14T02:53:48.248Z,3.77
2018-06-14T02:56:16.601Z,3.93
2018-06-14T02:58:44.964Z,3.17
2018-06-14T03:01:13.031Z,3.77
2018-06-14T03:03:41.132Z,4.10
2018-06-14T03:06:09.465Z,4.30
2018-06-14T03:08:37.867Z,3.47
2018-06-14T03:11:05.963Z,4.00
2018-06-14T03:13:34.346Z,3.60
2018-06-14T03:16:02.733Z,4.30
2018-06-14T03:18:31.116Z,4.00
2018-06-14T03:20:59.480Z,4.00
2018-06-14T03:23:27.924Z,3.50
2018-06-14T03:25:56.280Z,4.03
2018-06-14T03:28:24.667Z,3.77
2018-06-14T03:30:53.036Z,4.00
2018-06-14T03:33:21.408Z,4.03
2018-06-14T03:35:49.740Z,4.60
2018-06-14T03:38:17.832Z,4.10
2018-06-14T03:40:46.259Z,4.43
2018-06-14T03:43:14.593Z,4.10
2018-06-14T03:45:42.936Z,4.57
2018-06-14T03:48:11.432Z,4.30
2018-06-14T03:50:39.772Z,4.47
2018-06-14T03:53:08.145Z,4.47
2018-06-14T03:55:36.480Z,3.83
2018-06-14T03:58:04.858Z,3.93
2018-06-14T04:00:33.188Z,4.50
2018-06-14T04:03:01.561Z,4.73
2018-06-14T04:05:29.908Z,5.00
2018-06-14T04:07:58.286Z,4.27
2018-06-14T04:10:26.662Z,3.90
2018-06-14T04:12:55.040Z,4.53
2018-06-14T04:15:23.381Z,3.90
2018-06-14T04:17:59.084Z,4.37
2018-06-14T04:20:27.455Z,3.97
2018-06-14T04:22:55.824Z,4.50
2018-06-14T04:25:24.173Z,4.13
2018-06-14T04:27:52.507Z,4.63
2018-06-14T04:30:20.892Z,4.00
2018-06-14T04:32:49.231Z,4.30
2018-06-14T04:35:17.327Z,4.57
2018-06-14T04:37:45.669Z,4.30
2018-06-14T04:40:14.031Z,4.40
2018-06-14T04:42:42.382Z,4.20
2018-06-14T04:45:10.744Z,4.50
2018-06-14T04:47:39.136Z,4.30
2018-06-14T04:50:07.524Z,4.40
2018-06-14T04:52:35.873Z,4.47
2018-06-14T04:55:04.468Z,4.17
2018-06-14T04:57:32.928Z,4.13
2018-06-14T05:00:01.289Z,4.70
2018-06-14T05:02:29.669Z,4.00
2018-06-14T05:04:58.051Z,5.07
2018-06-14T05:07:26.422Z,4.53
2018-06-14T05:09:54.823Z,4.60
2018-06-14T05:12:22.947Z,4.40
2018-06-14T05:14:51.316Z,4.27
2018-06-14T05:17:19.703Z,4.40
2018-06-14T05:19:48.088Z,4.73
2018-06-14T05:22:16.441Z,4.20
2018-06-14T05:24:44.816Z,4.67
2018-06-14T05:27:13.151Z,4.03
2018-06-14T05:29:41.544Z,4.67
2018-06-14T05:32:09.880Z,4.27
2018-06-14T05:34:38.257Z,4.23
2018-06-14T05:37:06.660Z,4.23
2018-06-14T05:39:35.044Z,3.93
2018-06-14T05:42:03.437Z,3.87
2018-06-14T05:44:31.831Z,4.20
2018-06-14T05:47:00.172Z,4.37
2018-06-14T05:49:28.560Z,4.10
2018-06-14T05:51:56.900Z,4.40
2018-06-14T05:54:25.280Z,4.47
2018-06-14T05:56:53.653Z,3.80
2018-06-14T05:59:22.057Z,4.37
2018-06-14T06:01:50.391Z,4.03
2018-06-14T06:04:18.768Z,4.10
2018-06-14T06:06:46.833Z,4.17
2018-06-14T06:09:15.236Z,4.37
2018-06-14T06:11:43.777Z,4.00
2018-06-14T06:14:12.168Z,3.70
2018-06-14T06:16:40.512Z,4.20
2018-06-14T06:19:08.856Z,4.03
2018-06-14T06:21:37.268Z,4.40
2018-06-14T06:24:05.628Z,4.20
2018-06-14T06:26:34.002Z,4.37
2018-06-14T06:29:02.344Z,3.93
2018-06-14T06:31:30.727Z,3.60
2018-06-14T06:33:58.809Z,3.63
2018-06-14T06:36:26.909Z,4.30
2018-06-14T06:38:55.278Z,4.30
2018-06-14T06:41:23.713Z,4.77
2018-06-14T06:43:52.067Z,4.40
2018-06-14T06:46:20.434Z,4.27
2018-06-14T06:48:48.507Z,3.77
2018-06-14T06:51:16.888Z,3.80
2018-06-14T06:53:45.236Z,4.00
2018-06-14T06:56:13.616Z,4.17
2018-06-14T06:58:41.699Z,4.27
2018-06-14T07:01:10.087Z,4.63
2018-06-14T07:03:38.447Z,5.13
2018-06-14T07:06:06.617Z,5.07
2018-06-14T07:08:34.988Z,4.40
2018-06-14T07:11:03.088Z,4.80
2018-06-14T07:13:31.488Z,5.40
2018-06-14T07:15:59.865Z,4.87
2018-06-14T07:18:28.215Z,5.07
2018-06-14T07:20:56.309Z,5.43
2018-06-14T07:23:24.656Z,4.73
2018-06-14T07:25:53.037Z,5.50
2018-06-14T07:28:21.109Z,5.57
2018-06-14T07:30:49.208Z,6.27
2018-06-14T07:33:17.599Z,6.40
2018-06-14T07:35:45.982Z,6.00
2018-06-14T07:38:14.329Z,5.77
2018-06-14T07:40:42.433Z,4.83
2018-06-14T07:43:10.818Z,6.20
2018-06-14T07:45:39.197Z,5.83
2018-06-14T07:48:07.548Z,5.70
2018-06-14T07:50:35.924Z,5.87
2018-06-14T07:53:04.268Z,5.90
2018-06-14T07:55:32.693Z,5.53
2018-06-14T07:58:01.031Z,6.23
2018-06-14T08:00:29.425Z,5.87
2018-06-14T08:02:57.491Z,5.70
2018-06-14T08:05:25.862Z,5.60
2018-06-14T08:07:54.277Z,6.13
2018-06-14T08:10:22.789Z,6.10
2018-06-14T08:12:51.274Z,6.33
2018-06-14T08:15:19.629Z,6.17
2018-06-14T08:17:48.017Z,6.17
2018-06-14T08:20:18.903Z,6.03
2018-06-14T08:22:47.389Z,6.50
2018-06-14T08:25:15.745Z,6.77
2018-06-14T08:27:44.145Z,6.30
2018-06-14T08:30:12.513Z,6.40
2018-06-14T08:32:40.913Z,6.93
2018-06-14T08:35:09.259Z,6.80
2018-06-14T08:37:37.632Z,6.70
2018-06-14T08:40:06.008Z,6.77
2018-06-14T08:42:34.396Z,7.20
2018-06-14T08:45:02.749Z,7.10
2018-06-14T08:47:31.215Z,6.20
2018-06-14T08:49:59.563Z,6.13
2018-06-14T08:52:27.945Z,6.40
2018-06-14T08:54:56.323Z,7.27
2018-06-14T08:57:24.949Z,7.27
2018-06-14T08:59:53.342Z,6.30
2018-06-14T09:02:21.755Z,6.27
2018-06-14T09:04:50.089Z,6.40
2018-06-14T09:07:18.488Z,6.60
2018-06-14T09:09:46.864Z,5.83
2018-06-14T09:12:15.249Z,5.10
2018-06-14T09:14:43.601Z,6.27
2018-06-14T09:17:11.975Z,6.10
2018-06-14T09:19:40.326Z,6.03
2018-06-14T09:22:08.741Z,5.57
2018-06-14T09:24:37.093Z,6.10
2018-06-14T09:27:05.540Z,5.93
2018-06-14T09:29:33.919Z,5.90
2018-06-14T09:32:02.311Z,5.57
2018-06-14T09:34:30.660Z,6.13
2018-06-14T09:36:59.073Z,6.43
2018-06-14T09:39:27.424Z,5.47
2018-06-14T09:41:55.817Z,5.37
2018-06-14T09:44:24.157Z,5.80
2018-06-14T09:46:52.528Z,6.27
2018-06-14T09:49:20.597Z,5.83
2018-06-14T09:51:49.116Z,5.67
2018-06-14T09:54:17.639Z,5.60
2018-06-14T09:56:46.041Z,5.70
2018-06-14T09:59:14.108Z,5.77
2018-06-14T10:01:42.208Z,5.57
2018-06-14T10:04:10.572Z,5.50
2018-06-14T10:06:38.640Z,6.43
2018-06-14T10:09:09.112Z,5.87
2018-06-14T10:11:37.600Z,5.87
2018-06-14T10:14:06.092Z,6.50
2018-06-14T10:16:34.444Z,5.87
2018-06-14T10:19:02.909Z,5.80
2018-06-14T10:21:31.313Z,6.03
2018-06-14T10:23:59.703Z,5.90
2018-06-14T10:26:28.053Z,5.77
2018-06-14T10:28:56.403Z,5.00
2018-06-14T10:31:24.739Z,5.40
2018-06-14T10:33:53.300Z,5.53
2018-06-14T10:36:21.657Z,5.40
2018-06-14T10:38:50.202Z,4.57
2018-06-14T10:41:19.311Z,5.70
2018-06-14T10:43:47.726Z,6.10
2018-06-14T10:46:16.132Z,5.80
2018-06-14T10:48:44.525Z,4.90
2018-06-14T10:51:12.869Z,4.50
2018-06-14T10:53:41.252Z,5.07
2018-06-14T10:56:09.650Z,4.80
2018-06-14T10:58:38.031Z,5.17
2018-06-14T11:01:06.524Z,4.57
2018-06-14T11:03:34.931Z,5.03
2018-06-14T11:06:03.407Z,4.57
2018-06-14T11:08:31.452Z,4.20
2018-06-14T11:10:59.853Z,4.70
2018-06-14T11:13:28.237Z,4.93
2018-06-14T11:15:56.644Z,4.90
2018-06-14T11:18:24.763Z,5.03
2018-06-14T11:20:53.524Z,4.70
2018-06-14T11:23:21.980Z,5.30
2018-06-14T11:25:50.075Z,4.10
2018-06-14T11:28:18.509Z,4.00
2018-06-14T11:30:46.898Z,4.83
2018-06-14T11:33:15.303Z,4.00
2018-06-14T11:35:43.711Z,4.80
2018-06-14T11:38:13.729Z,4.73
2018-06-14T11:40:43.851Z,4.30
2018-06-14T11:43:12.440Z,4.40
2018-06-14T11:45:40.828Z,4.43
2018-06-14T11:48:09.212Z,4.10
2018-06-14T11:50:37.588Z,4.00
2018-06-14T11:53:05.936Z,4.70
2018-06-14T11:55:34.304Z,4.40
2018-06-14T11:58:02.383Z,4.27
2018-06-14T12:00:30.483Z,3.53
2018-06-14T12:02:58.827Z,4.07
2018-06-14T12:05:27.219Z,4.53
2018-06-14T12:07:55.591Z,4.03
2018-06-14T12:10:23.992Z,4.53
2018-06-14T12:12:52.336Z,4.10
2018-06-14T12:15:20.773Z,3.80
2018-06-14T12:17:49.113Z,4.60
2018-06-14T12:20:17.462Z,4.33
2018-06-14T12:22:45.797Z,3.77
2018-06-14T12:25:14.157Z,4.43
2018-06-14T12:27:42.509Z,4.80
2018-06-14T12:30:10.865Z,4.10
2018-06-14T12:32:39.217Z,4.20
2018-06-14T12:35:07.564Z,4.30
2018-06-14T12:37:35.689Z,3.97
2018-06-14T12:40:04.082Z,3.73
2018-06-14T12:42:32.476Z,4.10
2018-06-14T12:45:00.824Z,3.93
2018-06-14T12:47:29.177Z,3.60
2018-06-14T12:49:57.585Z,4.17
2018-06-14T12:52:25.967Z,3.33
2018-06-14T12:54:54.311Z,3.43
2018-06-14T12:57:22.655Z,3.50
2018-06-14T12:59:51.019Z,4.00
2018-06-14T13:02:19.344Z,3.57
2018-06-14T13:04:47.718Z,3.63
2018-06-14T13:07:16.051Z,3.70
2018-06-14T13:09:44.449Z,3.43
2018-06-14T13:12:12.791Z,3.65
2018-06-14T13:14:41.151Z,3.83
2018-06-14T13:17:09.504Z,3.43
2018-06-14T13:19:37.920Z,3.40
2018-06-14T13:22:06.391Z,3.37
2018-06-14T13:24:39.272Z,3.53
2018-06-14T13:27:07.708Z,3.80
2018-06-14T13:29:36.067Z,4.62
2018-06-14T13:32:04.628Z,3.90
2018-06-14T13:34:33.423Z,3.60
2018-06-14T13:37:01.769Z,3.50
2018-06-14T13:39:29.826Z,3.20
2018-06-14T13:41:58.236Z,4.05
2018-06-14T13:44:26.580Z,4.53
2018-06-14T13:46:54.948Z,3.90
2018-06-14T13:49:23.284Z,4.80
2018-06-14T13:51:51.647Z,4.60
2018-06-14T13:54:19.980Z,4.67
2018-06-14T13:56:48.429Z,4.60
2018-06-14T13:59:16.796Z,4.40
2018-06-14T14:01:45.152Z,4.90
2018-06-14T14:04:13.207Z,4.37
2018-06-14T14:06:41.599Z,4.53
2018-06-14T14:09:11.335Z,4.50
2018-06-14T14:11:39.731Z,4.90
2018-06-14T14:14:08.063Z,5.47
2018-06-14T14:16:36.414Z,5.10
2018-06-14T14:19:04.752Z,5.00
2018-06-14T14:21:33.125Z,4.57
2018-06-14T14:24:01.483Z,5.17
2018-06-14T14:26:29.567Z,4.80
2018-06-14T14:28:57.623Z,4.93
2018-06-14T14:31:26.213Z,5.30
2018-06-14T14:33:54.563Z,5.13
2018-06-14T14:36:22.933Z,4.97
2018-06-14T14:38:51.264Z,5.20
2018-06-14T14:41:19.347Z,5.17
2018-06-14T14:43:47.679Z,5.23
2018-06-14T14:46:16.048Z,4.90
2018-06-14T14:48:44.384Z,4.47
2018-06-14T14:51:12.752Z,4.73
2018-06-14T14:53:41.088Z,5.10
2018-06-14T14:56:09.468Z,4.90
2018-06-14T14:58:37.831Z,4.67
2018-06-14T15:01:06.231Z,4.43
2018-06-14T15:03:34.568Z,4.57
2018-06-14T15:06:03.068Z,4.80
2018-06-14T15:08:31.468Z,5.33
2018-06-14T15:10:59.859Z,5.03
2018-06-14T15:13:28.242Z,4.70
2018-06-14T15:15:56.612Z,4.97
2018-06-14T15:18:25.069Z,5.00
2018-06-14T15:20:53.415Z,5.43
2018-06-14T15:23:22.063Z,5.33
2018-06-14T15:25:50.408Z,5.93
2018-06-14T15:28:18.802Z,5.50
2018-06-14T15:30:47.143Z,6.20
2018-06-14T15:33:15.511Z,5.17
2018-06-14T15:35:43.570Z,6.13
2018-06-14T15:38:11.924Z,5.20
2018-06-14T15:40:40.264Z,6.50
2018-06-14T15:43:08.620Z,5.83
2018-06-14T15:45:36.683Z,6.00
2018-06-14T15:48:04.779Z,6.63
2018-06-14T15:50:33.136Z,7.20
2018-06-14T15:53:01.287Z,6.57
2018-06-14T15:56:07.780Z,7.30
2018-06-14T15:58:35.954Z,8.07
2018-06-14T16:01:04.439Z,8.03
2018-06-14T16:03:32.527Z,7.03
2018-06-14T16:06:00.876Z,7.00
2018-06-14T16:08:29.331Z,7.43
2018-06-14T16:10:57.703Z,7.70
2018-06-14T16:13:26.080Z,7.30
2018-06-14T16:15:54.416Z,7.30
2018-06-14T16:18:22.496Z,7.13
2018-06-14T16:20:50.856Z,7.13
2018-06-14T16:23:19.223Z,6.60
2018-06-14T16:25:47.551Z,7.53
2018-06-14T16:28:15.939Z,6.70
2018-06-14T16:30:44.277Z,7.80
2018-06-14T16:33:12.390Z,8.17
2018-06-14T16:35:40.752Z,7.97
2018-06-14T16:38:09.112Z,8.30
2018-06-14T16:40:37.171Z,8.20
2018-06-14T16:43:05.870Z,8.97
2018-06-14T16:45:33.943Z,8.83
2018-06-14T16:48:02.044Z,10.10
2018-06-14T16:50:30.389Z,9.30
2018-06-14T16:52:58.757Z,8.73
2018-06-14T16:55:27.096Z,9.90
2018-06-14T16:57:55.447Z,11.00
2018-06-14T17:00:23.849Z,10.57
2018-06-14T17:02:52.243Z,10.40
2018-06-14T17:05:20.648Z,10.47
2018-06-14T17:07:49.048Z,11.33
2018-06-14T17:10:17.180Z,10.03
2018-06-14T17:12:45.526Z,10.93
2018-06-14T17:15:13.887Z,10.40
2018-06-14T17:17:41.955Z,10.47
2018-06-14T17:20:10.334Z,11.23
2018-06-14T17:22:38.416Z,11.37
2018-06-14T17:25:06.807Z,10.30
2018-06-14T17:27:35.141Z,10.63
2018-06-14T17:30:03.557Z,10.87
2018-06-14T17:32:31.625Z,11.37
2018-06-14T17:34:59.728Z,11.10
2018-06-14T17:37:28.072Z,11.27
2018-06-14T17:39:56.171Z,10.40
2018-06-14T17:42:24.536Z,10.53
2018-06-14T17:44:52.924Z,11.47
2018-06-14T17:47:21.256Z,11.07
2018-06-14T17:49:49.633Z,11.50
2018-06-14T17:52:18.567Z,11.27
2018-06-14T17:54:46.960Z,10.70
2018-06-14T17:57:15.312Z,11.07
2018-06-14T17:59:43.712Z,11.00
2018-06-14T18:02:12.084Z,11.10
2018-06-14T18:04:40.473Z,10.17
2018-06-14T18:07:08.816Z,10.90
2018-06-14T18:09:37.216Z,10.57
2018-06-14T18:12:05.307Z,10.47
2018-06-14T18:14:33.696Z,10.80
2018-06-14T18:17:02.046Z,10.00
2018-06-14T18:19:30.444Z,10.27
2018-06-14T18:21:58.787Z,10.20
2018-06-14T18:24:27.155Z,10.47
2018-06-14T18:26:55.660Z,11.00
2018-06-14T18:29:23.843Z,10.23
2018-06-14T18:31:51.917Z,11.20
2018-06-14T18:34:20.299Z,10.53
2018-06-14T18:36:48.972Z,10.60
2018-06-14T18:39:17.348Z,10.33
2018-06-14T18:41:45.711Z,11.33
2018-06-14T18:44:14.127Z,10.93
2018-06-14T18:46:42.472Z,11.40
2018-06-14T18:49:10.836Z,10.67
2018-06-14T18:51:39.218Z,11.37
2018-06-14T18:54:07.640Z,11.90
2018-06-14T18:56:36.022Z,10.97
2018-06-14T18:59:04.088Z,10.37
2018-06-14T19:01:32.456Z,10.83
2018-06-14T19:04:00.800Z,10.00
2018-06-14T19:06:29.184Z,10.97
2018-06-14T19:08:57.568Z,10.43
2018-06-14T19:11:25.964Z,10.47
2018-06-14T19:13:54.376Z,10.03
2018-06-14T19:16:22.536Z,9.50
2018-06-14T19:18:53.258Z,9.47
2018-06-14T19:21:22.200Z,9.30
2018-06-14T19:23:51.333Z,9.47
2018-06-14T19:26:19.813Z,9.47
2018-06-14T19:28:48.122Z,9.03
2018-06-14T19:31:16.551Z,10.07
2018-06-14T19:33:44.892Z,9.40
2018-06-14T19:36:13.266Z,9.60
2018-06-14T19:38:41.343Z,9.30
2018-06-14T19:41:09.511Z,9.80
2018-06-14T19:43:37.584Z,9.47
2018-06-14T19:46:05.712Z,9.10
2018-06-14T19:48:34.052Z,9.57
2018-06-14T19:51:02.457Z,9.70
2018-06-14T19:53:30.868Z,9.27
2018-06-14T19:55:59.248Z,9.67
2018-06-14T19:58:27.600Z,9.20
2018-06-14T20:00:55.982Z,9.47
2018-06-14T20:03:24.318Z,10.43
2018-06-14T20:05:52.448Z,9.53
2018-06-14T20:08:20.792Z,9.37
2018-06-14T20:10:49.224Z,9.60
2018-06-14T20:13:17.675Z,10.27
2018-06-14T20:15:46.041Z,10.10
2018-06-14T20:18:14.388Z,10.13
2018-06-14T20:20:42.512Z,10.77
2018-06-14T20:23:10.983Z,11.67
2018-06-14T20:25:39.358Z,10.63
2018-06-14T20:28:07.718Z,11.07
2018-06-14T20:30:37.054Z,11.00
2018-06-14T20:33:05.452Z,11.43
2018-06-14T20:35:33.820Z,11.17
2018-06-14T20:38:02.176Z,11.10
2018-06-14T20:40:30.561Z,11.33
2018-06-14T20:42:58.903Z,11.27
2018-06-14T20:45:27.288Z,10.63
2018-06-14T20:47:55.393Z,11.07
2018-06-14T20:50:23.736Z,10.60
2018-06-14T20:52:51.827Z,10.70
2018-06-14T20:55:20.159Z,10.00
2018-06-14T20:57:48.519Z,9.57
2018-06-14T21:00:16.843Z,9.27
2018-06-14T21:02:45.227Z,9.27
2018-06-14T21:05:13.298Z,10.00
2018-06-14T21:07:41.392Z,10.60
2018-06-14T21:10:09.762Z,9.57
2018-06-14T21:12:38.151Z,9.93
2018-06-14T21:15:06.544Z,9.93
2018-06-14T21:17:34.919Z,10.63
2018-06-14T21:20:03.256Z,10.70
2018-06-14T21:22:31.628Z,10.27
2018-06-14T21:25:00.063Z,10.33
2018-06-14T21:27:28.437Z,10.57
2018-06-14T21:29:57.607Z,10.30
2018-06-14T21:32:25.705Z,10.30
2018-06-14T21:34:54.044Z,10.70
2018-06-14T21:37:22.417Z,11.97
2018-06-14T21:39:50.811Z,11.30
2018-06-14T21:42:18.910Z,11.53
2018-06-14T21:44:47.240Z,11.70
2018-06-14T21:47:15.612Z,11.70
2018-06-14T21:49:43.943Z,12.20
2018-06-14T21:52:12.345Z,12.63
2018-06-14T21:54:40.680Z,12.60
2018-06-14T21:57:08.778Z,13.20
2018-06-14T21:59:37.112Z,13.33
2018-06-14T22:02:05.564Z,13.10
2018-06-14T22:04:33.901Z,13.77
2018-06-14T22:07:01.991Z,12.80
2018-06-14T22:09:30.366Z,12.67
2018-06-14T22:11:58.748Z,13.10
2018-06-14T22:14:27.076Z,13.83
2018-06-14T22:16:55.504Z,14.57
2018-06-14T22:19:23.844Z,14.53
2018-06-14T22:21:52.213Z,12.83
2018-06-14T22:24:20.567Z,14.20
2018-06-14T22:26:48.946Z,15.13
2018-06-14T22:29:17.279Z,14.40
2018-06-14T22:31:45.456Z,13.57
2018-06-14T22:34:25.203Z,13.80
2018-06-14T22:36:53.568Z,14.07
2018-06-14T22:39:21.903Z,13.83
2018-06-14T22:41:50.367Z,14.60
2018-06-14T22:44:18.725Z,14.60
2018-06-14T22:46:47.097Z,16.33
2018-06-14T22:49:15.472Z,17.47
2018-06-14T22:52:10.220Z,17.10
2018-06-14T22:54:38.555Z,17.37
2018-06-14T22:57:06.628Z,18.20
2018-06-14T22:59:34.719Z,18.53
2018-06-14T23:02:03.051Z,17.93
2018-06-14T23:04:32.173Z,19.17
2018-06-14T23:07:00.242Z,18.33
2018-06-14T23:10:44.704Z,19.33
2018-06-14T23:13:14.553Z,18.43
2018-06-14T23:15:42.906Z,19.10
2018-06-14T23:18:11.003Z,20.13
2018-06-14T23:20:39.371Z,20.03
2018-06-14T23:23:08.084Z,18.77
2018-06-14T23:25:36.932Z,19.40
2018-06-14T23:28:05.004Z,20.03
2018-06-14T23:30:33.408Z,20.50
2018-06-14T23:33:01.464Z,19.93
2018-06-14T23:35:29.567Z,19.67
2018-06-14T23:37:57.909Z,20.10
2018-06-14T23:40:26.273Z,21.80
2018-06-14T23:42:54.613Z,20.83
2018-06-14T23:45:23.012Z,22.67
2018-06-14T23:47:51.347Z,20.37
2018-06-14T23:50:19.711Z,22.10
2018-06-14T23:52:47.777Z,20.60
2018-06-14T23:55:16.135Z,22.13
2018-06-14T23:57:44.471Z,23.10
